Time;durP1;ratioP1;P1;durP2;ratioP2;P2;SDS_P1;SDS_P2;PMS_P1;PMS_P2;Temp;Humidity;BMP_temperature;BMP_pressure;BME280_temperature;BME280_humidity;BME280_pressure;Samples;Min_cycle;Max_cycle;Signal;HPM_P1;HPM_P2
2021/11/08 00:05:44;;;;;;;9.83;5.53;;;;;;;7.60;100.00;98920.19;4224103;83;28493;-79
2021/11/08 00:11:46;;;;;;;8.93;5.00;;;;;;;7.61;100.00;98924.00;4213214;82;28487;-76
2021/11/08 00:18:12;;;;;;;9.60;4.92;;;;;;;7.63;100.00;98920.58;4218190;82;28488;-77
2021/11/08 00:23:53;;;;;;;7.47;4.60;;;;;;;7.61;100.00;98931.19;4214047;82;28500;-77
2021/11/08 00:29:55;;;;;;;8.53;4.62;;;;;;;7.58;100.00;98937.78;4161197;83;28501;-81
2021/11/08 00:36:00;;;;;;;8.40;4.50;;;;;;;7.53;100.00;98945.64;4161814;84;28461;-76
2021/11/08 00:42:01;;;;;;;7.53;4.47;;;;;;;7.49;100.00;98958.63;4254008;82;28472;-77
2021/11/08 00:48:04;;;;;;;6.92;4.33;;;;;;;7.50;100.00;98952.77;4218883;83;28469;-77
2021/11/08 00:54:10;;;;;;;7.15;3.95;;;;;;;7.42;100.00;98954.34;4213202;82;28449;-78
2021/11/08 01:00:12;;;;;;;8.25;4.17;;;;;;;7.41;100.00;98974.09;4165172;83;28511;-78
2021/11/08 01:06:16;;;;;;;7.78;3.87;;;;;;;7.43;100.00;98981.39;4143036;84;28515;-78
2021/11/08 01:12:20;;;;;;;8.53;4.87;;;;;;;7.47;100.00;98984.77;4091958;85;28490;-79
2021/11/08 01:18:22;;;;;;;6.72;4.45;;;;;;;7.44;100.00;98984.37;4050371;87;28478;-79
2021/11/08 01:24:23;;;;;;;7.22;4.25;;;;;;;7.37;100.00;98997.77;4050050;86;28517;-78
2021/11/08 01:30:26;;;;;;;8.50;4.12;;;;;;;7.35;100.00;99000.64;4101955;86;28454;-80
2021/11/08 01:36:34;;;;;;;7.40;4.00;;;;;;;7.29;100.00;99003.34;4007731;87;28484;-79
2021/11/08 01:42:30;;;;;;;6.28;3.95;;;;;;;7.34;100.00;99007.03;4035009;86;28507;-79
2021/11/08 01:48:32;;;;;;;8.13;4.95;;;;;;;7.34;100.00;99009.70;4046799;86;28524;-77
2021/11/08 01:54:34;;;;;;;7.97;4.37;;;;;;;7.35;100.00;99016.69;4037862;86;28458;-77
2021/11/08 02:00:37;;;;;;;8.00;4.10;;;;;;;7.24;100.00;99026.20;4093478;84;28587;-78
2021/11/08 02:06:38;;;;;;;6.92;4.10;;;;;;;7.36;100.00;99032.23;4128425;84;28536;-76
2021/11/08 02:12:40;;;;;;;8.65;5.08;;;;;;;7.33;100.00;99026.78;4111891;85;28501;-77
2021/11/08 02:18:43;;;;;;;6.85;3.95;;;;;;;7.21;100.00;99031.95;4127146;85;28517;-78
2021/11/08 02:24:44;;;;;;;7.35;4.35;;;;;;;7.05;100.00;99035.89;4136482;85;28510;-78
2021/11/08 02:30:46;;;;;;;7.35;4.35;;;;;;;6.97;100.00;99039.61;4099245;85;28492;-78
2021/11/08 02:36:48;;;;;;;5.87;4.00;;;;;;;6.87;100.00;99045.88;4113291;86;28492;-77
2021/11/08 02:42:54;;;;;;;6.40;4.10;;;;;;;6.87;100.00;99038.37;4109125;85;28503;-77
2021/11/08 02:48:58;;;;;;;6.60;3.87;;;;;;;6.84;100.00;99047.64;4057913;85;28493;-77
2021/11/08 02:55:01;;;;;;;7.62;4.25;;;;;;;6.81;100.00;99056.05;4140302;85;28501;-78
2021/11/08 03:01:03;;;;;;;7.78;4.72;;;;;;;6.78;100.00;99053.30;4187494;84;28505;-78
2021/11/08 03:07:05;;;;;;;8.05;4.22;;;;;;;6.60;100.00;99062.44;4211925;84;28487;-78
2021/11/08 03:13:14;;;;;;;7.12;4.20;;;;;;;6.51;100.00;99063.96;4128612;85;28467;-78
2021/11/08 03:19:19;;;;;;;6.22;3.50;;;;;;;6.46;100.00;99073.11;4128574;86;28473;-79
2021/11/08 03:31:35;;;;;;;7.30;4.10;;;;;;;6.66;100.00;99075.79;4148859;86;28468;-78
2021/11/08 03:37:39;;;;;;;8.35;4.50;;;;;;;6.80;100.00;99078.46;4137026;86;28480;-78
2021/11/08 03:43:40;;;;;;;6.65;4.25;;;;;;;6.88;100.00;99076.92;4097089;86;28502;-78
2021/11/08 03:49:42;;;;;;;7.05;4.20;;;;;;;6.88;100.00;99074.78;4061858;87;28483;-79
2021/11/08 03:55:45;;;;;;;6.25;4.45;;;;;;;6.95;100.00;99073.75;4100034;86;28483;-79
2021/11/08 04:01:46;;;;;;;7.40;4.33;;;;;;;7.01;100.00;99068.09;4047689;86;28459;-80
2021/11/08 04:07:48;;;;;;;7.08;4.53;;;;;;;7.02;100.00;99075.08;4128812;85;28514;-80
2021/11/08 04:13:50;;;;;;;6.40;4.00;;;;;;;7.02;100.00;99082.26;4129023;85;28523;-79
2021/11/08 04:19:52;;;;;;;5.33;3.22;;;;;;;6.98;100.00;99084.02;4155756;85;28470;-79
2021/11/08 04:25:57;;;;;;;6.25;3.58;;;;;;;7.03;100.00;99075.38;4153570;84;28510;-79
2021/11/08 04:31:58;;;;;;;6.95;4.28;;;;;;;7.02;100.00;99081.76;4128445;85;28551;-78
2021/11/08 04:38:19;;;;;;;5.35;3.62;;;;;;;6.86;100.00;99076.81;4102235;87;28505;-80
2021/11/08 04:50:44;;;;;;;6.33;3.40;;;;;;;6.78;100.00;99073.84;4169539;85;28541;-79
2021/11/08 04:57:09;;;;;;;6.87;3.50;;;;;;;6.78;100.00;99081.86;4178177;80;28514;-78
2021/11/08 05:21:06;;;;;;;6.58;4.05;;;;;;;6.82;100.00;99089.77;4275580;83;28495;-78
2021/11/08 05:21:52;;;;;;;9.70;3.60;;;;;;;6.50;100.00;99101.55;4109035;87;28473;-78
2021/11/08 05:34:04;;;;;;;8.35;4.08;;;;;;;6.20;100.00;99117.41;4109191;86;28515;-77
2021/11/08 05:40:13;;;;;;;6.95;3.75;;;;;;;6.19;100.00;99121.59;4255866;84;28523;-77
2021/11/08 05:46:11;;;;;;;6.72;3.98;;;;;;;5.97;100.00;99129.20;4254501;83;28585;-79
2021/11/08 05:52:15;;;;;;;7.17;4.10;;;;;;;5.95;100.00;99149.09;4110473;87;28472;-81
2021/11/08 05:58:34;;;;;;;6.58;4.12;;;;;;;5.92;100.00;99150.31;4281553;82;28473;-80
2021/11/08 06:54:45;;;;;;;9.05;4.67;;;;;;;7.13;100.00;99213.98;4280004;82;28517;-85
2021/11/08 07:00:47;;;;;;;10.30;4.45;;;;;;;7.27;100.00;99212.67;4251560;81;28593;-80
2021/11/08 07:06:49;;;;;;;7.83;3.70;;;;;;;7.17;100.00;99222.42;4254813;83;28522;-82
2021/11/08 07:12:52;;;;;;;7.75;4.58;;;;;;;7.39;100.00;99223.91;4253559;83;28455;-81
2021/11/08 07:18:53;;;;;;;8.93;4.50;;;;;;;7.53;100.00;99223.36;4243283;82;28556;-80
2021/11/08 07:24:55;;;;;;;9.35;4.72;;;;;;;7.70;100.00;99237.67;4216877;82;28499;-81
2021/11/08 07:30:56;;;;;;;10.58;4.95;;;;;;;7.80;100.00;99238.07;4235492;83;28452;-87
2021/11/08 07:36:59;;;;;;;8.98;4.70;;;;;;;7.89;100.00;99252.05;4230743;82;28529;-79
2021/11/08 07:43:00;;;;;;;7.60;4.53;;;;;;;8.12;100.00;99256.12;4189188;84;28529;-78
2021/11/08 07:49:01;;;;;;;9.30;4.60;;;;;;;8.32;100.00;99258.77;4201936;84;28451;-78
2021/11/08 07:55:04;;;;;;;10.23;4.15;;;;;;;8.44;100.00;99270.16;4248729;83;28492;-78
2021/11/08 08:01:06;;;;;;;7.42;4.25;;;;;;;8.55;100.00;99276.23;4235877;83;28486;-77
2021/11/08 08:07:08;;;;;;;11.18;3.92;;;;;;;8.82;100.00;99290.88;4248323;83;28515;-78
2021/11/08 08:13:09;;;;;;;8.63;4.00;;;;;;;8.80;100.00;99298.31;4240041;83;28484;-78
2021/11/08 08:19:11;;;;;;;10.30;4.50;;;;;;;8.79;100.00;99312.23;4245932;82;28533;-78
2021/11/08 08:25:13;;;;;;;8.93;3.85;;;;;;;8.76;100.00;99305.13;4253242;82;28544;-79
2021/11/08 08:31:15;;;;;;;9.43;4.33;;;;;;;8.85;100.00;99315.91;4259734;82;28488;-78
2021/11/08 08:37:18;;;;;;;8.38;4.28;;;;;;;8.93;100.00;99323.72;4208203;84;28478;-78
2021/11/08 08:43:20;;;;;;;8.83;4.50;;;;;;;9.00;100.00;99329.05;4213829;84;28474;-80
2021/11/08 08:49:22;;;;;;;12.85;4.45;;;;;;;9.20;100.00;99348.25;4204902;84;28515;-78
2021/11/08 08:55:25;;;;;;;9.08;4.30;;;;;;;9.12;100.00;99345.81;4242665;83;28545;-78
2021/11/08 09:01:32;;;;;;;36.93;8.90;;;;;;;9.18;100.00;99348.45;4205167;82;28478;-78
2021/11/08 09:07:35;;;;;;;6.67;2.62;;;;;;;9.36;100.00;99352.29;4253777;83;28523;-86
2021/11/08 09:13:37;;;;;;;8.33;3.45;;;;;;;9.38;99.04;99355.58;4216452;84;28524;-77
2021/11/08 09:19:39;;;;;;;7.62;2.65;;;;;;;9.51;100.00;99355.19;4220486;84;28478;-79
2021/11/08 09:25:42;;;;;;;9.43;2.92;;;;;;;9.62;97.01;99358.01;4223428;84;28526;-79
2021/11/08 09:31:45;;;;;;;6.10;2.62;;;;;;;9.85;95.02;99360.63;4128369;86;28493;-79
2021/11/08 09:37:48;;;;;;;6.92;2.70;;;;;;;9.83;93.83;99365.41;4103178;86;28499;-82
2021/11/08 09:43:52;;;;;;;6.72;2.77;;;;;;;9.96;93.42;99361.80;4171970;85;28503;-81
2021/11/08 09:50:00;;;;;;;6.87;2.17;;;;;;;10.14;94.00;99362.37;4173587;84;28555;-76
2021/11/08 09:56:03;;;;;;;5.73;2.13;;;;;;;10.08;90.26;99371.30;4166408;83;28522;-77
2021/11/08 10:02:12;;;;;;;7.60;2.30;;;;;;;10.12;92.11;99369.83;4217729;82;28462;-78
2021/11/08 10:08:19;;;;;;;6.12;2.10;;;;;;;10.10;89.19;99358.48;4218790;84;28504;-76
2021/11/08 10:14:20;;;;;;;;;;;;;;;10.24;87.06;99368.56;4224208;84;28501;-77
2021/11/08 10:20:41;;;;;;;4.65;1.22;;;;;;;10.28;84.45;99360.89;4218122;84;20195;-78
2021/11/08 10:26:43;;;;;;;5.97;1.27;;;;;;;10.44;84.85;99356.33;4218156;84;28478;-78
2021/11/08 10:32:45;;;;;;;3.27;1.40;;;;;;;10.64;79.91;99352.61;4217704;84;28486;-81
2021/11/08 10:38:49;;;;;;;3.70;1.35;;;;;;;10.79;78.93;99341.48;4237185;83;28484;-79
2021/11/08 10:44:50;;;;;;;3.72;1.40;;;;;;;10.79;76.19;99346.03;4259610;83;28538;-82
2021/11/08 10:50:54;;;;;;;3.55;1.42;;;;;;;10.81;74.62;99346.11;4258584;83;28485;-78
2021/11/08 10:57:01;;;;;;;4.10;1.20;;;;;;;10.75;74.62;99330.86;4248173;84;28507;-80
2021/11/08 11:03:18;;;;;;;4.47;1.02;;;;;;;10.65;71.91;99331.40;4234047;84;28526;-79
2021/11/08 11:09:24;;;;;;;5.87;1.10;;;;;;;10.76;72.63;99338.41;4234455;83;28495;-76
2021/11/08 11:15:32;;;;;;;3.05;0.85;;;;;;;10.82;70.93;99330.27;4234683;83;28514;-79
2021/11/08 11:21:36;;;;;;;4.30;1.02;;;;;;;10.80;72.00;99339.59;4235352;83;28494;-77
2021/11/08 11:27:47;;;;;;;3.92;1.10;;;;;;;10.75;70.64;99342.96;4236460;83;28501;-77
2021/11/08 11:33:54;;;;;;;3.17;0.62;;;;;;;10.87;71.75;99345.19;4235223;84;28500;-78
2021/11/08 11:40:10;;;;;;;3.60;0.75;;;;;;;10.86;70.53;99350.81;4235603;83;28484;-76
2021/11/08 11:46:22;;;;;;;4.13;0.93;;;;;;;10.79;70.05;99348.72;4236406;83;28522;-78
2021/11/08 11:52:24;;;;;;;2.95;0.80;;;;;;;10.92;71.15;99347.75;4260764;82;28456;-76
2021/11/08 11:58:27;;;;;;;4.28;1.00;;;;;;;10.91;69.41;99344.77;4223032;82;28492;-80
2021/11/08 12:04:29;;;;;;;3.47;0.95;;;;;;;10.78;70.03;99343.05;4098964;86;28497;-73
2021/11/08 12:10:31;;;;;;;2.17;0.70;;;;;;;10.76;70.64;99337.08;4209986;83;28473;-76
2021/11/08 12:16:33;;;;;;;3.90;0.85;;;;;;;10.69;70.31;99343.88;4189832;83;28496;-78
2021/11/08 12:22:36;;;;;;;2.33;0.80;;;;;;;10.62;70.67;99339.09;4196411;84;28446;-74
2021/11/08 12:28:37;;;;;;;1.87;1.00;;;;;;;10.54;70.73;99339.67;4213449;84;28495;-75
2021/11/08 12:34:47;;;;;;;4.33;1.05;;;;;;;10.49;71.69;99341.39;4188255;84;28508;-75
2021/11/08 12:41:06;;;;;;;4.35;1.10;;;;;;;10.36;72.50;99357.09;4215848;84;28507;-78
2021/11/08 12:47:10;;;;;;;2.37;0.90;;;;;;;10.43;73.10;99349.82;4214836;84;28529;-76
2021/11/08 12:53:29;;;;;;;2.98;1.25;;;;;;;10.32;73.67;99344.11;4215301;84;28516;-76
2021/11/08 12:59:34;;;;;;;3.33;1.20;;;;;;;10.26;74.53;99351.73;4202310;83;28509;-78
2021/11/08 13:05:48;;;;;;;3.83;1.37;;;;;;;10.28;75.43;99359.05;4203689;83;28472;-76
2021/11/08 13:11:53;;;;;;;3.20;1.40;;;;;;;10.22;75.52;99351.05;4188258;85;28503;-76
2021/11/08 13:18:02;;;;;;;6.33;2.30;;;;;;;10.17;75.76;99355.20;4244693;84;28552;-76
2021/11/08 13:24:07;;;;;;;5.33;1.65;;;;;;;10.15;76.39;99364.01;4176904;84;28465;-75
2021/11/08 13:30:10;;;;;;;5.45;1.70;;;;;;;10.16;76.29;99379.62;4213160;84;28471;-84
2021/11/08 13:36:14;;;;;;;5.33;1.80;;;;;;;10.04;77.45;99378.16;4128630;86;28489;-82
2021/11/08 13:42:21;;;;;;;5.22;1.80;;;;;;;9.83;79.00;99376.15;4133794;86;28498;-79
2021/11/08 13:48:35;;;;;;;6.22;1.85;;;;;;;9.85;78.68;99379.97;4135188;86;28479;-78
2021/11/08 13:54:37;;;;;;;4.40;1.80;;;;;;;9.72;79.72;99384.91;4126182;83;28580;-79
2021/11/08 14:00:38;;;;;;;5.05;1.77;;;;;;;9.77;80.34;99383.72;4361219;81;28507;-79
2021/11/08 14:06:43;;;;;;;6.45;2.20;;;;;;;9.79;80.87;99384.85;4380346;81;28527;-81
2021/11/08 14:12:45;;;;;;;6.00;2.35;;;;;;;9.80;81.53;99387.33;4381100;81;28476;-80
2021/11/08 14:18:54;;;;;;;5.10;2.60;;;;;;;9.72;82.98;99387.59;4380490;81;28495;-82
2021/11/08 14:24:57;;;;;;;7.08;2.77;;;;;;;9.63;84.39;99393.72;4182267;85;28525;-80
2021/11/08 14:30:58;;;;;;;9.28;2.75;;;;;;;9.63;86.01;99396.41;4315193;82;28487;-81
2021/11/08 14:37:10;;;;;;;11.90;3.12;;;;;;;9.51;88.23;99402.16;4315117;82;28488;-81
2021/11/08 14:43:22;;;;;;;8.60;3.12;;;;;;;9.47;89.60;99407.97;4315087;81;28532;-79
2021/11/08 14:49:32;;;;;;;9.60;3.35;;;;;;;9.49;89.72;99409.91;4315226;81;28517;-81
2021/11/08 14:55:37;;;;;;;8.48;3.02;;;;;;;9.42;90.87;99415.81;4316046;82;28469;-81
2021/11/08 15:01:43;;;;;;;7.62;3.35;;;;;;;9.37;91.81;99415.66;4235321;81;28490;-85
2021/11/08 15:07:47;;;;;;;7.35;3.00;;;;;;;9.38;91.67;99427.22;4210401;84;28487;-86
2021/11/08 15:13:52;;;;;;;7.85;3.08;;;;;;;9.31;93.13;99427.23;4245705;83;28490;-84
2021/11/08 15:20:05;;;;;;;8.83;3.45;;;;;;;9.27;95.65;99432.73;4229504;83;28453;-86
2021/11/08 15:26:14;;;;;;;7.78;3.45;;;;;;;9.23;95.45;99440.91;4225489;83;28517;-84
2021/11/08 15:32:15;;;;;;;15.28;3.85;;;;;;;9.30;95.00;99437.66;4243067;83;28543;-84
2021/11/08 15:38:21;;;;;;;18.15;4.60;;;;;;;9.27;96.30;99446.98;4225993;83;28521;-85
2021/11/08 15:44:24;;;;;;;12.68;4.37;;;;;;;9.22;98.69;99449.46;4235350;83;28486;-88
2021/11/08 15:50:25;;;;;;;8.80;4.22;;;;;;;9.18;99.42;99449.05;4241127;81;28540;-88
2021/11/08 15:56:27;;;;;;;10.03;3.05;;;;;;;9.16;100.00;99462.37;4241524;82;28519;-86
2021/11/08 16:02:35;;;;;;;11.95;4.00;;;;;;;9.13;100.00;99463.64;4222274;82;28468;-88
2021/11/08 16:08:33;;;;;;;10.38;4.05;;;;;;;9.20;100.00;99460.39;4228029;83;28486;-87
2021/11/08 16:14:34;;;;;;;11.90;4.60;;;;;;;9.24;100.00;99466.70;4233451;83;28462;-88
2021/11/08 16:20:36;;;;;;;10.65;4.17;;;;;;;9.17;100.00;99471.55;4247141;83;28993;-87
2021/11/08 16:26:38;;;;;;;11.63;4.45;;;;;;;9.19;100.00;99483.42;4247788;82;28555;-90
2021/11/08 16:33:03;;;;;;;10.93;5.33;;;;;;;9.19;100.00;99490.94;4243876;82;28548;-87
2021/11/08 16:39:05;;;;;;;9.23;4.60;;;;;;;9.15;100.00;99515.72;4250098;82;28585;-87
2021/11/08 16:45:10;;;;;;;10.58;4.60;;;;;;;9.05;100.00;99513.48;4236711;82;28541;-87
2021/11/08 16:51:18;;;;;;;8.85;4.87;;;;;;;8.95;100.00;99529.17;4245682;82;28552;-88
2021/11/08 16:57:20;;;;;;;10.48;4.95;;;;;;;8.92;100.00;99531.75;4243419;82;28508;-87
2021/11/08 17:03:25;;;;;;;10.25;5.12;;;;;;;8.91;100.00;99535.47;4232861;82;28531;-83
2021/11/08 17:09:50;;;;;;;11.97;4.80;;;;;;;8.82;100.00;99542.91;4255924;82;28576;-86
2021/11/08 17:15:37;;;;;;;11.22;5.28;;;;;;;8.72;100.00;99550.01;4228666;82;28580;-89
2021/11/08 17:21:39;;;;;;;9.68;5.03;;;;;;;8.54;100.00;99551.97;4205148;82;28490;-87
2021/11/08 17:27:41;;;;;;;10.05;4.42;;;;;;;8.58;100.00;99551.86;4226897;83;28479;-87
2021/11/08 17:33:43;;;;;;;13.35;5.90;;;;;;;8.58;100.00;99564.45;4240420;82;28507;-84
2021/11/08 17:39:47;;;;;;;11.53;6.03;;;;;;;8.54;100.00;99569.39;4232612;82;28506;-89
2021/11/08 17:45:49;;;;;;;14.40;6.87;;;;;;;8.54;100.00;99573.91;4241582;82;28452;-87
2021/11/08 17:51:51;;;;;;;15.23;7.12;;;;;;;8.49;100.00;99576.67;4162946;83;28563;-86
2021/11/08 17:57:52;;;;;;;16.80;7.47;;;;;;;8.51;100.00;99584.55;4138743;84;28508;-87
2021/11/08 18:03:53;;;;;;;16.97;7.95;;;;;;;8.31;100.00;99596.02;4125635;84;28579;-86
2021/11/08 18:09:55;;;;;;;17.65;8.43;;;;;;;8.31;100.00;99620.63;4067545;85;28441;-85
2021/11/08 18:15:58;;;;;;;13.85;7.50;;;;;;;8.25;100.00;99619.59;4242582;82;28538;-85
2021/11/08 18:28:09;;;;;;;15.80;8.38;;;;;;;8.23;100.00;99605.07;4259131;82;28554;-86
2021/11/08 18:34:11;;;;;;;15.58;9.00;;;;;;;8.23;100.00;99605.57;4226818;82;28474;-87
2021/11/08 18:40:14;;;;;;;16.77;8.68;;;;;;;8.09;100.00;99618.09;4236547;82;28467;-87
2021/11/08 18:46:15;;;;;;;17.05;8.80;;;;;;;8.03;100.00;99617.05;4146788;85;28485;-85
2021/11/08 18:52:17;;;;;;;15.70;8.68;;;;;;;8.04;100.00;99623.23;4116704;84;28459;-85
2021/11/08 18:58:19;;;;;;;17.48;9.90;;;;;;;8.06;100.00;99624.66;4089696;86;28452;-88
2021/11/08 19:04:30;;;;;;;20.10;10.75;;;;;;;8.08;100.00;99626.66;4098603;86;28486;-86
2021/11/08 19:10:25;;;;;;;19.65;10.40;;;;;;;8.02;100.00;99628.78;4107169;84;28484;-85
2021/11/08 19:16:32;;;;;;;22.07;10.90;;;;;;;8.04;100.00;99643.32;4152822;84;28569;-87
2021/11/08 19:22:34;;;;;;;21.35;10.88;;;;;;;8.02;100.00;99648.02;4225093;84;28455;-90
2021/11/08 19:28:38;;;;;;;18.82;11.10;;;;;;;8.04;100.00;99653.50;4270976;82;28501;-85
2021/11/08 19:34:54;;;;;;;20.72;10.53;;;;;;;8.05;100.00;99659.17;4265377;82;28491;-81
2021/11/08 19:40:52;;;;;;;20.62;11.30;;;;;;;8.09;100.00;99671.66;4199917;84;28474;-82
2021/11/08 19:46:56;;;;;;;22.37;11.70;;;;;;;8.00;100.00;99675.02;4209256;84;28482;-81
2021/11/08 19:53:02;;;;;;;;;;;;;;;8.04;100.00;99691.00;4196706;84;28512;-83
2021/11/08 19:59:13;;;;;;;19.15;10.55;;;;;;;7.98;100.00;99691.81;4229117;83;87555;-84
2021/11/08 20:05:14;;;;;;;25.02;13.22;;;;;;;8.01;100.00;99691.40;4172327;83;28481;-84
2021/11/08 20:11:16;;;;;;;27.55;14.23;;;;;;;7.95;100.00;99696.20;4136812;85;28481;-83
2021/11/08 20:17:18;;;;;;;29.82;15.88;;;;;;;7.98;100.00;99711.89;4165273;84;28453;-83
2021/11/08 20:23:24;;;;;;;36.35;18.20;;;;;;;7.95;100.00;99709.59;4106641;84;28500;-84
2021/11/08 20:29:32;;;;;;;33.70;16.23;;;;;;;8.02;100.00;99716.31;4143259;86;28491;-83
2021/11/08 20:42:01;;;;;;;32.58;15.40;;;;;;;8.01;100.00;99719.52;4135140;85;28516;-86
2021/11/08 20:54:25;;;;;;;30.90;15.93;;;;;;;7.97;100.00;99716.94;4175274;84;28505;-82
2021/11/08 21:00:41;;;;;;;28.52;15.10;;;;;;;7.84;100.00;99724.37;4156149;84;28532;-80
2021/11/08 21:07:00;;;;;;;29.52;15.80;;;;;;;7.85;100.00;99737.22;4201722;83;28499;-86
2021/11/08 21:13:06;;;;;;;30.97;16.80;;;;;;;7.89;100.00;99733.15;4189934;84;28489;-82
2021/11/08 21:18:57;;;;;;;28.50;15.45;;;;;;;7.82;100.00;99730.44;4197834;83;28537;-81
2021/11/08 21:25:01;;;;;;;25.82;14.68;;;;;;;7.81;100.00;99738.16;4188828;83;28496;-85
2021/11/08 21:31:16;;;;;;;32.65;16.70;;;;;;;7.80;100.00;99736.47;4207506;83;28521;-81
2021/11/08 21:43:28;;;;;;;32.33;17.20;;;;;;;7.77;100.00;99749.76;4186079;83;28516;-81
2021/11/08 21:49:30;;;;;;;35.65;17.92;;;;;;;7.65;100.00;99749.95;4219566;83;28488;-84
2021/11/08 21:55:34;;;;;;;36.33;17.37;;;;;;;7.73;100.00;99755.17;4206833;82;28508;-82
2021/11/08 22:01:35;;;;;;;39.88;19.60;;;;;;;7.69;100.00;99757.93;4194028;83;28471;-84
2021/11/08 22:07:38;;;;;;;37.42;20.72;;;;;;;7.66;100.00;99763.15;4218691;83;28522;-80
2021/11/08 22:13:39;;;;;;;36.40;19.15;;;;;;;7.67;100.00;99769.34;4236249;83;28545;-81
2021/11/08 22:19:41;;;;;;;33.02;17.90;;;;;;;7.59;100.00;99765.47;4236163;82;28545;-83
2021/11/08 22:25:43;;;;;;;37.83;20.40;;;;;;;7.64;100.00;99777.73;4212723;83;28470;-83
2021/11/08 22:31:44;;;;;;;39.60;20.80;;;;;;;7.75;100.00;99771.05;4230637;82;28458;-90
2021/11/08 22:37:51;;;;;;;36.55;18.95;;;;;;;7.75;100.00;99778.55;4232003;82;28492;-84
2021/11/08 22:43:50;;;;;;;35.75;19.45;;;;;;;7.70;100.00;99776.14;4205106;82;28549;-82
2021/11/08 22:49:51;;;;;;;35.60;19.52;;;;;;;7.78;100.00;99784.88;4214598;82;28506;-84
2021/11/08 22:55:54;;;;;;;41.05;20.68;;;;;;;7.71;100.00;99788.52;4255044;82;28638;-81
2021/11/08 23:01:55;;;;;;;35.60;19.67;;;;;;;7.67;100.00;99796.11;4222607;82;28460;-81
2021/11/08 23:07:57;;;;;;;38.00;19.48;;;;;;;7.62;100.00;99794.51;4168515;83;28501;-82
2021/11/08 23:14:00;;;;;;;36.83;17.87;;;;;;;7.67;100.00;99800.12;4112592;84;28524;-84
2021/11/08 23:20:04;;;;;;;42.88;21.90;;;;;;;7.77;100.00;99803.30;4048380;86;28552;-83
2021/11/08 23:26:07;;;;;;;42.65;22.45;;;;;;;7.59;100.00;99806.42;4164013;83;28447;-83
2021/11/08 23:32:09;;;;;;;34.15;19.25;;;;;;;7.66;100.00;99807.31;4071525;86;28472;-81
2021/11/08 23:38:11;;;;;;;38.45;19.12;;;;;;;7.54;100.00;99805.66;4168769;82;28452;-82
2021/11/08 23:44:15;;;;;;;35.15;19.20;;;;;;;7.51;100.00;99809.25;4166939;82;28539;-82
2021/11/08 23:50:16;;;;;;;38.48;19.12;;;;;;;7.63;100.00;99806.87;4158169;83;28507;-83
2021/11/08 23:56:22;;;;;;;36.05;19.82;;;;;;;7.64;100.00;99805.84;4180280;83;28544;-84
